createdAt,value
2024-05-09T00:00:36.250Z,5.00
2024-05-09T00:03:08.242Z,4.70
2024-05-09T00:05:36.396Z,4.38
2024-05-09T00:08:03.792Z,4.50
2024-05-09T00:10:36.311Z,5.67
2024-05-09T00:13:05.894Z,4.70
2024-05-09T00:15:33.607Z,4.70
2024-05-09T00:18:00.810Z,4.10
2024-05-09T00:20:35.988Z,4.90
2024-05-09T00:23:07.460Z,4.80
2024-05-09T00:25:35.310Z,5.05
2024-05-09T00:28:02.369Z,4.80
2024-05-09T00:30:34.306Z,5.05
2024-05-09T00:33:04.541Z,5.10
2024-05-09T00:35:32.332Z,4.70
2024-05-09T00:37:59.122Z,4.97
2024-05-09T00:40:35.542Z,5.63
2024-05-09T00:43:06.486Z,4.90
2024-05-09T00:45:35.191Z,4.70
2024-05-09T00:48:06.706Z,5.30
2024-05-09T00:50:37.447Z,4.95
2024-05-09T00:53:06.759Z,5.20
2024-05-09T00:55:35.864Z,5.20
2024-05-09T00:58:04.085Z,5.45
2024-05-09T01:00:37.946Z,5.97
2024-05-09T01:03:07.522Z,4.90
2024-05-09T01:05:35.402Z,5.47
2024-05-09T01:08:03.177Z,5.68
2024-05-09T01:10:34.504Z,4.85
2024-05-09T01:13:06.708Z,4.93
2024-05-09T01:15:35.885Z,5.75
2024-05-09T01:18:07.790Z,4.88
2024-05-09T01:20:40.633Z,5.78
2024-05-09T01:23:10.418Z,5.43
2024-05-09T01:25:37.452Z,5.67
2024-05-09T01:28:04.408Z,5.18
2024-05-09T01:30:35.452Z,5.40
2024-05-09T01:33:05.947Z,5.40
2024-05-09T01:35:34.216Z,5.68
2024-05-09T01:38:00.945Z,5.27
2024-05-09T01:40:36.396Z,5.65
2024-05-09T01:43:06.380Z,5.15
2024-05-09T01:45:33.179Z,5.07
2024-05-09T01:48:00.120Z,5.15
2024-05-09T01:50:36.787Z,5.67
2024-05-09T01:53:07.076Z,4.68
2024-05-09T01:55:33.744Z,5.07
2024-05-09T01:58:00.348Z,5.55
2024-05-09T02:00:37.672Z,5.53
2024-05-09T02:03:10.193Z,5.43
2024-05-09T02:05:37.876Z,5.57
2024-05-09T02:08:05.745Z,5.15
2024-05-09T02:10:33.391Z,5.22
2024-05-09T02:13:00.502Z,5.43
2024-05-09T02:15:27.147Z,5.37
2024-05-09T02:17:54.076Z,5.30
2024-05-09T02:20:30.180Z,5.30
2024-05-09T02:23:04.419Z,5.32
2024-05-09T02:25:31.906Z,5.10
2024-05-09T02:27:58.689Z,5.80
2024-05-09T02:30:35.342Z,5.10
2024-05-09T02:33:06.815Z,5.38
2024-05-09T02:35:33.915Z,5.07
2024-05-09T02:38:00.875Z,5.65
2024-05-09T02:40:35.721Z,5.63
2024-05-09T02:43:05.676Z,5.80
2024-05-09T02:45:32.504Z,5.80
2024-05-09T02:47:59.451Z,5.47
2024-05-09T02:50:34.147Z,5.50
2024-05-09T02:53:05.414Z,5.43
2024-05-09T02:55:32.506Z,5.13
2024-05-09T02:57:59.395Z,4.90
2024-05-09T03:00:34.751Z,5.93
2024-05-09T03:03:08.335Z,5.45
2024-05-09T03:05:36.441Z,5.20
2024-05-09T03:08:03.721Z,4.93
2024-05-09T03:10:35.875Z,5.25
2024-05-09T03:13:15.525Z,5.15
2024-05-09T03:15:43.777Z,5.55
2024-05-09T03:18:11.127Z,5.23
2024-05-09T03:20:39.139Z,5.32
2024-05-09T03:23:08.135Z,5.35
2024-05-09T03:25:35.977Z,5.97
2024-05-09T03:28:02.948Z,5.75
2024-05-09T03:30:38.373Z,5.10
2024-05-09T03:33:13.931Z,5.88
2024-05-09T03:35:41.802Z,5.60
2024-05-09T03:38:08.689Z,5.15
2024-05-09T03:40:35.549Z,5.32
2024-05-09T03:43:02.182Z,5.10
2024-05-09T03:45:28.741Z,5.90
2024-05-09T03:47:55.526Z,5.10
2024-05-09T03:50:29.726Z,4.97
2024-05-09T03:53:01.170Z,4.97
2024-05-09T03:55:28.446Z,5.13
2024-05-09T03:57:55.160Z,4.63
2024-05-09T04:00:31.041Z,5.45
2024-05-09T04:03:06.047Z,5.47
2024-05-09T04:05:34.490Z,5.82
2024-05-09T04:08:01.733Z,5.37
2024-05-09T04:10:33.465Z,5.63
2024-05-09T04:13:01.959Z,4.90
2024-05-09T04:15:28.845Z,5.78
2024-05-09T04:17:55.997Z,5.40
2024-05-09T04:20:33.305Z,4.83
2024-05-09T04:23:12.825Z,4.70
2024-05-09T04:25:45.262Z,5.00
2024-05-09T04:28:12.804Z,5.63
2024-05-09T04:30:41.347Z,5.68
2024-05-09T04:33:14.265Z,4.70
2024-05-09T04:35:43.201Z,5.32
2024-05-09T04:38:10.359Z,5.15
2024-05-09T04:40:37.810Z,5.45
2024-05-09T04:43:06.713Z,5.38
2024-05-09T04:45:33.736Z,5.17
2024-05-09T04:48:01.187Z,4.80
2024-05-09T04:50:35.841Z,4.47
2024-05-09T04:53:06.343Z,4.45
2024-05-09T04:55:34.062Z,4.78
2024-05-09T04:58:01.133Z,5.57
2024-05-09T05:00:35.570Z,5.40
2024-05-09T05:03:07.381Z,4.88
2024-05-09T05:05:38.200Z,5.65
2024-05-09T05:08:05.688Z,5.47
2024-05-09T05:10:36.165Z,5.60
2024-05-09T05:13:18.128Z,5.22
2024-05-09T05:15:50.180Z,5.40
2024-05-09T05:18:17.268Z,5.85
2024-05-09T05:20:44.505Z,6.00
2024-05-09T05:23:13.756Z,5.93
2024-05-09T05:25:43.753Z,5.85
2024-05-09T05:28:10.853Z,6.30
2024-05-09T05:30:38.419Z,6.10
2024-05-09T05:33:06.333Z,7.68
2024-05-09T05:35:34.370Z,7.70
2024-05-09T05:38:01.249Z,7.45
2024-05-09T05:40:35.428Z,7.50
2024-05-09T05:43:05.425Z,7.35
2024-05-09T05:45:32.079Z,7.38
2024-05-09T05:47:59.986Z,7.50
2024-05-09T05:50:32.829Z,8.35
2024-05-09T05:53:03.405Z,7.95
2024-05-09T05:55:30.180Z,8.43
2024-05-09T05:57:56.795Z,8.73
2024-05-09T06:00:29.939Z,8.77
2024-05-09T06:03:04.887Z,9.55
2024-05-09T06:05:31.865Z,9.10
2024-05-09T06:07:58.850Z,9.45
2024-05-09T06:10:30.222Z,9.55
2024-05-09T06:13:04.237Z,9.53
2024-05-09T06:15:30.938Z,8.57
2024-05-09T06:17:57.744Z,8.88
2024-05-09T06:20:33.973Z,9.48
2024-05-09T06:23:03.592Z,9.77
2024-05-09T06:25:30.307Z,10.53
2024-05-09T06:27:57.058Z,12.98
2024-05-09T06:30:35.034Z,13.65
2024-05-09T06:33:06.659Z,13.32
2024-05-09T06:35:34.134Z,11.70
2024-05-09T06:38:01.223Z,11.87
2024-05-09T06:40:36.359Z,12.30
2024-05-09T06:43:05.941Z,11.05
2024-05-09T06:45:32.647Z,10.38
2024-05-09T06:47:59.672Z,9.60
2024-05-09T06:50:28.719Z,9.53
2024-05-09T06:53:02.577Z,9.38
2024-05-09T06:55:29.390Z,10.15
2024-05-09T06:57:56.004Z,9.57
2024-05-09T07:00:30.470Z,9.13
2024-05-09T07:03:12.924Z,9.50
2024-05-09T07:05:41.873Z,8.63
2024-05-09T07:08:08.645Z,8.65
2024-05-09T07:10:36.772Z,8.70
2024-05-09T07:13:11.705Z,8.02
2024-05-09T07:15:38.812Z,9.37
2024-05-09T07:18:13.419Z,9.10
2024-05-09T07:20:40.818Z,8.18
2024-05-09T07:23:11.898Z,8.35
2024-05-09T07:25:40.439Z,8.55
2024-05-09T07:28:13.366Z,8.50
2024-05-09T07:30:40.009Z,8.65
2024-05-09T07:33:06.742Z,8.27
2024-05-09T07:35:33.730Z,8.32
2024-05-09T07:38:00.502Z,9.10
2024-05-09T07:40:34.875Z,9.03
2024-05-09T07:43:04.490Z,9.18
2024-05-09T07:45:47.984Z,8.13
2024-05-09T07:53:38.832Z,8.43
2024-05-09T07:56:08.299Z,8.02
2024-05-09T07:58:35.853Z,7.53
2024-05-09T08:01:02.828Z,8.60
2024-05-09T08:03:29.674Z,8.30
2024-05-09T08:05:56.532Z,8.30
2024-05-09T08:08:23.417Z,8.50
2024-05-09T08:10:50.684Z,8.27
2024-05-09T08:13:17.733Z,8.07
2024-05-09T08:15:44.405Z,7.53
2024-05-09T08:18:11.596Z,7.30
2024-05-09T08:20:39.005Z,8.23
2024-05-09T08:23:05.867Z,7.47
2024-05-09T08:25:32.723Z,7.97
2024-05-09T08:27:59.367Z,7.35
2024-05-09T08:30:33.127Z,7.53
2024-05-09T08:33:04.846Z,6.70
2024-05-09T08:35:32.359Z,6.70
2024-05-09T08:37:59.262Z,6.97
2024-05-09T08:40:33.470Z,7.18
2024-05-09T08:43:05.661Z,6.70
2024-05-09T08:45:33.313Z,6.97
2024-05-09T08:48:05.773Z,6.68
2024-05-09T08:50:38.737Z,6.53
2024-05-09T08:53:07.159Z,7.30
2024-05-09T08:55:33.802Z,7.03
2024-05-09T08:58:03.071Z,6.45
2024-05-09T09:00:36.822Z,6.93
2024-05-09T09:03:07.394Z,6.75
2024-05-09T09:05:39.327Z,6.32
2024-05-09T09:08:08.160Z,7.03
2024-05-09T09:10:35.844Z,7.22
2024-05-09T09:13:05.007Z,7.15
2024-05-09T09:15:32.562Z,6.80
2024-05-09T09:18:01.007Z,6.43
2024-05-09T09:20:35.742Z,7.00
2024-05-09T09:23:04.498Z,6.63
2024-05-09T09:25:31.940Z,7.63
2024-05-09T09:27:58.926Z,6.10
2024-05-09T09:30:36.252Z,6.00
2024-05-09T09:33:06.250Z,7.27
2024-05-09T09:35:33.773Z,7.15
2024-05-09T09:38:03.285Z,6.57
2024-05-09T09:40:37.095Z,6.55
2024-05-09T09:43:14.284Z,7.30
2024-05-09T09:45:43.232Z,6.40
2024-05-09T09:48:11.920Z,7.10
2024-05-09T09:50:40.153Z,6.57
2024-05-09T09:53:08.039Z,7.47
2024-05-09T09:55:37.221Z,6.30
2024-05-09T09:58:05.159Z,6.47
2024-05-09T10:00:34.359Z,6.68
2024-05-09T10:03:02.169Z,7.00
2024-05-09T10:05:30.122Z,6.97
2024-05-09T10:07:59.220Z,6.85
2024-05-09T10:10:32.380Z,6.73
2024-05-09T10:13:04.668Z,6.88
2024-05-09T10:15:45.258Z,7.22
2024-05-09T10:18:12.156Z,7.07
2024-05-09T10:20:42.466Z,6.43
2024-05-09T10:23:32.359Z,6.10
2024-05-09T10:26:00.913Z,6.20
2024-05-09T10:28:35.771Z,5.63
2024-05-09T10:31:13.547Z,5.65
2024-05-09T10:33:45.560Z,6.00
2024-05-09T10:36:14.072Z,5.53
2024-05-09T10:38:43.842Z,6.00
2024-05-09T10:41:11.075Z,5.28
2024-05-09T10:43:41.803Z,4.45
2024-05-09T10:46:09.860Z,4.38
2024-05-09T10:48:37.967Z,4.33
2024-05-09T10:51:05.434Z,4.47
2024-05-09T10:53:32.194Z,4.72
2024-05-09T10:55:59.846Z,4.18
2024-05-09T10:58:27.670Z,4.45
2024-05-09T11:00:57.959Z,4.20
2024-05-09T11:03:25.398Z,4.68
2024-05-09T11:05:53.143Z,4.15
2024-05-09T11:08:24.025Z,4.40
2024-05-09T11:10:52.761Z,4.28
2024-05-09T11:13:33.279Z,5.00
2024-05-09T11:16:00.594Z,4.95
2024-05-09T11:18:33.474Z,4.68
2024-05-09T11:21:02.965Z,4.82
2024-05-09T11:23:32.462Z,5.65
2024-05-09T11:25:59.325Z,4.83
2024-05-09T11:28:28.690Z,5.80
2024-05-09T11:31:05.957Z,5.15
2024-05-09T11:33:32.697Z,4.38
2024-05-09T11:35:59.368Z,4.80
2024-05-09T11:38:26.114Z,4.93
2024-05-09T11:40:52.798Z,5.43
2024-05-09T11:43:19.659Z,4.97
2024-05-09T11:45:46.409Z,5.38
2024-05-09T11:48:13.218Z,5.30
2024-05-09T11:50:39.943Z,6.47
2024-05-09T11:53:06.559Z,6.53
2024-05-09T11:55:36.794Z,5.90
2024-05-09T11:58:04.499Z,5.45
2024-05-09T12:00:36.682Z,6.00
2024-05-09T12:03:05.712Z,5.90
2024-05-09T12:05:33.363Z,5.25
2024-05-09T12:08:00.828Z,6.15
2024-05-09T12:10:33.185Z,6.43
2024-05-09T12:13:04.554Z,5.85
2024-05-09T12:15:32.787Z,5.93
2024-05-09T12:18:02.747Z,6.28
2024-05-09T12:20:36.715Z,5.95
2024-05-09T12:23:06.252Z,5.55
2024-05-09T12:25:33.009Z,5.40
2024-05-09T12:27:59.976Z,5.97
2024-05-09T12:30:35.438Z,6.38
2024-05-09T12:33:06.327Z,6.72
2024-05-09T12:35:33.187Z,5.93
2024-05-09T12:38:00.023Z,7.03
2024-05-09T12:40:34.701Z,6.63
2024-05-09T12:43:04.984Z,7.45
2024-05-09T12:45:31.956Z,6.68
2024-05-09T12:47:58.948Z,5.85
2024-05-09T12:50:32.034Z,7.10
2024-05-09T12:53:01.450Z,7.23
2024-05-09T12:55:30.176Z,7.38
2024-05-09T12:58:00.957Z,6.65
2024-05-09T13:00:31.791Z,6.60
2024-05-09T13:03:01.069Z,7.43
2024-05-09T13:05:28.429Z,6.33
2024-05-09T13:07:56.681Z,7.03
2024-05-09T13:10:31.152Z,7.38
2024-05-09T13:13:00.235Z,7.57
2024-05-09T13:15:27.357Z,7.15
2024-05-09T13:17:55.815Z,7.27
2024-05-09T13:20:31.208Z,7.60
2024-05-09T13:23:02.192Z,6.93
2024-05-09T13:25:29.881Z,6.70
2024-05-09T13:27:57.290Z,7.35
2024-05-09T13:30:29.931Z,7.40
2024-05-09T13:33:05.895Z,7.63
2024-05-09T13:35:34.674Z,7.07
2024-05-09T13:38:02.527Z,7.05
2024-05-09T13:40:33.794Z,7.40
2024-05-09T13:43:03.211Z,6.77
2024-05-09T13:45:30.322Z,7.50
2024-05-09T13:47:57.364Z,6.90
2024-05-09T13:50:32.963Z,7.07
2024-05-09T13:53:02.737Z,8.13
2024-05-09T13:55:29.290Z,7.83
2024-05-09T13:57:56.342Z,7.38
2024-05-09T14:00:37.466Z,7.50
2024-05-09T14:03:09.875Z,6.88
2024-05-09T14:05:36.874Z,6.40
2024-05-09T14:08:04.166Z,7.63
2024-05-09T14:10:32.218Z,7.03
2024-05-09T14:13:00.947Z,7.30
2024-05-09T14:15:27.890Z,7.88
2024-05-09T14:17:55.458Z,7.22
2024-05-09T14:20:30.416Z,7.00
2024-05-09T14:22:59.656Z,7.07
2024-05-09T14:25:31.915Z,6.78
2024-05-09T14:27:58.769Z,6.65
2024-05-09T14:30:34.217Z,6.45
2024-05-09T14:33:05.468Z,6.83
2024-05-09T14:35:32.724Z,7.65
2024-05-09T14:37:59.447Z,7.25
2024-05-09T14:40:36.639Z,6.90
2024-05-09T14:43:08.388Z,7.55
2024-05-09T14:45:35.536Z,6.90
2024-05-09T14:48:03.361Z,7.30
2024-05-09T14:50:36.111Z,6.63
2024-05-09T14:53:07.197Z,7.13
2024-05-09T14:55:37.276Z,7.72
2024-05-09T14:58:08.482Z,8.20
2024-05-09T15:00:41.278Z,8.23
2024-05-09T15:03:11.214Z,6.75
2024-05-09T15:05:38.044Z,8.38
2024-05-09T15:08:08.724Z,7.60
2024-05-09T15:10:36.841Z,9.17
2024-05-09T15:13:06.586Z,8.68
2024-05-09T15:15:34.882Z,8.90
2024-05-09T15:18:01.797Z,9.23
2024-05-09T15:20:34.579Z,10.32
2024-05-09T15:23:04.385Z,9.70
2024-05-09T15:25:31.173Z,9.57
2024-05-09T15:27:57.980Z,9.88
2024-05-09T15:30:30.719Z,10.88
2024-05-09T15:33:00.371Z,10.63
2024-05-09T15:35:27.368Z,11.53
2024-05-09T15:37:54.127Z,12.73
2024-05-09T15:40:30.603Z,12.60
2024-05-09T15:43:04.645Z,13.55
2024-05-09T15:45:31.441Z,12.80
2024-05-09T15:47:58.894Z,13.80
2024-05-09T15:50:35.425Z,13.10
2024-05-09T15:53:06.313Z,13.00
2024-05-09T15:55:34.110Z,13.10
2024-05-09T15:58:02.794Z,13.10
2024-05-09T16:00:37.396Z,13.47
2024-05-09T16:03:07.994Z,13.70
2024-05-09T16:05:34.881Z,12.45
2024-05-09T16:08:01.913Z,13.55
2024-05-09T16:10:32.750Z,11.90
2024-05-09T16:13:02.199Z,11.73
2024-05-09T16:15:29.435Z,12.43
2024-05-09T16:17:56.476Z,13.05
2024-05-09T16:22:53.114Z,12.77
2024-05-09T16:25:19.872Z,12.73
2024-05-09T16:27:46.920Z,14.27
2024-05-09T16:30:21.195Z,13.30
2024-05-09T16:32:55.164Z,14.18
2024-05-09T16:35:21.986Z,13.07
2024-05-09T16:37:49.189Z,13.27
2024-05-09T16:40:25.116Z,13.00
2024-05-09T16:43:03.566Z,13.75
2024-05-09T16:45:30.504Z,13.70
2024-05-09T16:47:57.587Z,13.23
2024-05-09T16:50:29.455Z,14.30
2024-05-09T16:53:00.130Z,13.48
2024-05-09T16:55:27.234Z,13.45
2024-05-09T16:57:54.698Z,13.90
2024-05-09T17:00:31.442Z,13.45
2024-05-09T17:03:07.329Z,13.43
2024-05-09T17:05:35.236Z,12.65
2024-05-09T17:08:02.750Z,13.20
2024-05-09T17:10:33.219Z,13.63
2024-05-09T17:13:06.556Z,13.68
2024-05-09T17:15:34.739Z,12.97
2024-05-09T17:18:02.117Z,14.40
2024-05-09T17:20:33.561Z,13.77
2024-05-09T17:23:04.431Z,14.73
2024-05-09T17:25:31.570Z,13.00
2024-05-09T17:28:05.306Z,12.43
2024-05-09T17:30:36.324Z,13.23
2024-05-09T17:33:06.364Z,13.02
2024-05-09T17:35:33.221Z,13.30
2024-05-09T17:38:01.574Z,12.30
2024-05-09T17:40:33.560Z,11.67
2024-05-09T17:43:03.513Z,11.55
2024-05-09T17:45:30.793Z,13.20
2024-05-09T17:47:58.023Z,13.20
2024-05-09T17:50:31.420Z,12.25
2024-05-09T17:53:02.396Z,12.70
2024-05-09T17:55:29.253Z,12.48
2024-05-09T17:57:56.095Z,11.70
2024-05-09T18:00:33.136Z,12.85
2024-05-09T18:03:06.403Z,13.20
2024-05-09T18:05:34.040Z,11.60
2024-05-09T18:08:00.750Z,12.27
2024-05-09T18:10:35.135Z,11.80
2024-05-09T18:13:05.460Z,12.75
2024-05-09T18:15:32.787Z,11.95
2024-05-09T18:17:59.746Z,13.30
2024-05-09T18:20:36.666Z,13.10
2024-05-09T18:23:08.919Z,12.45
2024-05-09T18:25:35.576Z,13.23
2024-05-09T18:28:03.246Z,12.77
2024-05-09T18:30:34.831Z,13.27
2024-05-09T18:33:07.849Z,14.07
2024-05-09T18:35:35.641Z,13.30
2024-05-09T18:38:02.710Z,14.40
2024-05-09T18:40:34.405Z,14.60
2024-05-09T18:43:05.678Z,13.27
2024-05-09T18:45:33.700Z,13.65
2024-05-09T18:48:00.747Z,13.13
2024-05-09T18:50:34.950Z,12.95
2024-05-09T18:53:09.961Z,14.23
2024-05-09T18:55:36.780Z,14.83
2024-05-09T18:58:04.658Z,13.35
2024-05-09T19:00:35.934Z,12.82
2024-05-09T19:03:09.557Z,13.20
2024-05-09T19:05:39.034Z,13.57
2024-05-09T19:08:07.353Z,13.10
2024-05-09T19:10:35.574Z,15.05
2024-05-09T19:13:08.178Z,14.45
2024-05-09T19:15:38.893Z,14.30
2024-05-09T19:18:06.512Z,14.30
2024-05-09T19:20:35.098Z,14.73
2024-05-09T19:23:03.464Z,14.38
2024-05-09T19:25:32.107Z,14.40
2024-05-09T19:28:00.770Z,15.90
2024-05-09T19:30:36.697Z,14.38
2024-05-09T19:33:08.077Z,16.03
2024-05-09T19:35:34.969Z,15.82
2024-05-09T19:38:02.269Z,15.52
2024-05-09T19:40:32.159Z,15.93
2024-05-09T19:43:04.862Z,16.15
2024-05-09T19:45:33.524Z,15.90
2024-05-09T19:48:01.353Z,17.20
2024-05-09T19:50:36.899Z,16.83
2024-05-09T19:53:09.634Z,16.83
2024-05-09T19:55:36.453Z,17.30
2024-05-09T19:58:05.436Z,15.77
2024-05-09T20:00:39.404Z,16.92
2024-05-09T20:03:08.776Z,16.85
2024-05-09T20:05:36.463Z,17.40
2024-05-09T20:08:03.964Z,16.85
2024-05-09T20:10:33.285Z,17.63
2024-05-09T20:13:02.435Z,17.92
2024-05-09T20:15:29.386Z,20.65
2024-05-09T20:17:56.180Z,18.13
2024-05-09T20:20:32.971Z,18.23
2024-05-09T20:23:07.792Z,17.83
2024-05-09T20:25:34.350Z,17.05
2024-05-09T20:28:01.097Z,16.92
2024-05-09T20:30:32.235Z,17.48
2024-05-09T20:33:02.837Z,18.10
2024-05-09T20:35:32.599Z,16.70
2024-05-09T20:37:59.702Z,17.58
2024-05-09T20:40:32.613Z,16.60
2024-05-09T20:43:03.077Z,17.50
2024-05-09T20:45:29.743Z,18.42
2024-05-09T20:47:57.336Z,17.80
2024-05-09T20:50:34.920Z,17.48
2024-05-09T20:53:05.721Z,20.40
2024-05-09T20:55:32.317Z,21.52
2024-05-09T20:57:59.007Z,20.83
2024-05-09T21:00:34.536Z,21.13
2024-05-09T21:03:07.190Z,21.25
2024-05-09T21:05:34.809Z,21.13
2024-05-09T21:08:01.896Z,19.52
2024-05-09T21:10:32.728Z,20.63
2024-05-09T21:13:01.034Z,20.60
2024-05-09T21:15:27.899Z,19.25
2024-05-09T21:17:54.560Z,19.98
2024-05-09T21:20:28.246Z,20.25
2024-05-09T21:22:57.893Z,20.80
2024-05-09T21:25:24.750Z,20.70
2024-05-09T21:27:52.108Z,20.83
2024-05-09T21:30:28.175Z,19.30
2024-05-09T21:33:04.966Z,20.85
2024-05-09T21:35:31.756Z,20.40
2024-05-09T21:37:58.383Z,19.43
2024-05-09T21:40:31.626Z,19.75
2024-05-09T21:43:01.574Z,19.77
2024-05-09T21:45:28.437Z,18.38
2024-05-09T21:47:55.301Z,19.95
2024-05-09T21:50:28.688Z,20.27
2024-05-09T21:53:03.186Z,19.48
2024-05-09T21:55:30.191Z,19.73
2024-05-09T21:57:56.952Z,20.77
2024-05-09T22:00:32.034Z,20.05
2024-05-09T22:03:03.643Z,21.00
2024-05-09T22:05:30.820Z,20.38
2024-05-09T22:07:57.784Z,20.08
2024-05-09T22:10:30.987Z,20.73
2024-05-09T22:13:01.588Z,21.40
2024-05-09T22:15:28.462Z,20.50
2024-05-09T22:17:56.661Z,21.80
2024-05-09T22:20:32.907Z,20.63
2024-05-09T22:23:04.090Z,21.70
2024-05-09T22:25:31.950Z,21.08
2024-05-09T22:27:59.335Z,21.17
2024-05-09T22:30:34.366Z,21.48
2024-05-09T22:33:05.980Z,19.77
2024-05-09T22:35:33.028Z,20.83
2024-05-09T22:38:00.083Z,21.55
2024-05-09T22:40:38.283Z,20.10
2024-05-09T22:43:13.290Z,20.70
2024-05-09T22:45:40.185Z,20.23
2024-05-09T22:48:08.057Z,21.40
2024-05-09T22:50:34.995Z,20.15
2024-05-09T22:53:01.816Z,21.10
2024-05-09T22:55:28.743Z,20.85
2024-05-09T22:57:55.665Z,21.05
2024-05-09T23:00:30.855Z,19.52
2024-05-09T23:03:00.248Z,22.20
2024-05-09T23:05:27.314Z,21.40
2024-05-09T23:07:54.050Z,19.98
2024-05-09T23:10:27.946Z,22.60
2024-05-09T23:13:01.204Z,20.55
2024-05-09T23:15:27.997Z,21.25
2024-05-09T23:17:55.273Z,20.20
2024-05-09T23:20:32.837Z,20.40
2024-05-09T23:23:04.472Z,19.75
2024-05-09T23:25:31.086Z,21.17
2024-05-09T23:27:57.740Z,20.70
2024-05-09T23:30:33.604Z,19.57
2024-05-09T23:33:05.164Z,19.63
2024-05-09T23:35:31.892Z,20.55
2024-05-09T23:37:58.437Z,19.83
2024-05-09T23:40:36.410Z,19.42
2024-05-09T23:43:06.346Z,20.93
2024-05-09T23:45:33.242Z,20.88
2024-05-09T23:48:00.156Z,20.50
2024-05-09T23:50:34.106Z,20.85
2024-05-09T23:53:04.220Z,19.88
2024-05-09T23:55:31.544Z,21.17
2024-05-09T23:57:58.570Z,19.95
